createdAt,value
2019-01-23T00:00:41.098Z,99976.38
2019-01-23T00:05:48.112Z,99972.00
2019-01-23T00:10:54.557Z,99966.83
2019-01-23T00:16:02.196Z,99959.78
2019-01-23T00:21:09.236Z,99958.27
2019-01-23T00:26:17.896Z,99958.49
2019-01-23T00:31:24.785Z,99948.89
2019-01-23T00:36:30.946Z,99947.34
2019-01-23T00:41:37.685Z,99947.72
2019-01-23T00:46:44.605Z,99942.56
2019-01-23T00:51:51.443Z,99938.83
2019-01-23T00:56:58.028Z,99939.87
2019-01-23T01:02:06.033Z,99931.38
2019-01-23T01:07:13.380Z,99927.25
2019-01-23T01:12:19.585Z,99918.55
2019-01-23T01:17:27.107Z,99916.56
2019-01-23T01:22:34.764Z,99910.95
2019-01-23T01:27:41.330Z,99900.78
2019-01-23T01:32:47.463Z,99910.16
2019-01-23T01:37:55.064Z,99903.08
2019-01-23T01:43:01.881Z,99899.49
2019-01-23T01:48:08.143Z,99906.45
2019-01-23T01:53:15.920Z,99902.97
2019-01-23T01:58:23.595Z,99893.44
2019-01-23T02:03:30.405Z,99891.23
2019-01-23T02:08:37.339Z,99884.16
2019-01-23T02:13:44.937Z,99877.63
2019-01-23T02:18:53.511Z,99870.54
2019-01-23T02:24:01.504Z,99873.13
2019-01-23T02:29:09.604Z,99870.70
2019-01-23T02:34:16.471Z,99869.63
2019-01-23T02:39:22.358Z,99868.31
2019-01-23T02:44:28.995Z,99867.05
2019-01-23T02:49:35.302Z,99866.00
2019-01-23T02:54:43.513Z,99859.22
2019-01-23T02:59:50.172Z,99860.16
2019-01-23T03:04:59.147Z,99863.70
2019-01-23T03:10:12.923Z,99865.70
2019-01-23T03:15:25.189Z,99856.48
2019-01-23T03:20:34.361Z,99859.24
2019-01-23T03:25:43.146Z,99849.50
2019-01-23T03:30:55.942Z,99846.72
2019-01-23T03:36:04.487Z,99845.89
2019-01-23T03:41:13.605Z,99851.37
2019-01-23T03:46:23.480Z,99841.22
2019-01-23T03:51:32.066Z,99838.50
2019-01-23T03:56:41.711Z,99842.32
2019-01-23T04:01:50.622Z,99849.03
2019-01-23T04:07:00.528Z,99852.58
2019-01-23T04:12:09.764Z,99844.63
2019-01-23T04:17:18.915Z,99844.19
2019-01-23T04:22:26.290Z,99849.61
2019-01-23T04:27:34.249Z,99850.52
2019-01-23T04:32:42.939Z,99856.45
2019-01-23T04:37:54.710Z,99852.16
2019-01-23T04:43:03.374Z,99849.86
2019-01-23T04:48:12.593Z,99849.92
2019-01-23T04:53:22.774Z,99847.53
2019-01-23T04:58:31.377Z,99848.28
2019-01-23T05:03:39.575Z,99843.70
2019-01-23T05:14:09.562Z,99830.92
2019-01-23T05:19:18.971Z,99833.15
2019-01-23T05:24:27.823Z,99832.25
2019-01-23T05:29:36.745Z,99837.92
2019-01-23T05:34:45.503Z,99846.82
2019-01-23T05:39:58.633Z,99846.83
2019-01-23T05:45:12.667Z,99834.88
2019-01-23T05:50:20.854Z,99842.45
2019-01-23T05:55:28.472Z,99840.89
2019-01-23T06:00:37.320Z,99841.05
2019-01-23T06:05:44.596Z,99837.68
2019-01-23T06:10:51.848Z,99830.58
2019-01-23T06:16:00.291Z,99824.55
2019-01-23T06:21:08.721Z,99823.78
2019-01-23T06:26:19.848Z,99828.50
2019-01-23T06:31:28.831Z,99829.05
2019-01-23T06:36:38.593Z,99828.56
2019-01-23T06:41:49.503Z,99829.69
2019-01-23T06:46:58.104Z,99830.22
2019-01-23T06:52:07.914Z,99832.42
2019-01-23T06:57:19.986Z,99843.98
2019-01-23T07:02:29.936Z,99846.67
2019-01-23T07:07:38.771Z,99847.30
2019-01-23T07:12:51.641Z,99843.98
2019-01-23T07:18:00.328Z,99841.25
2019-01-23T07:28:49.164Z,99839.98
2019-01-23T07:33:54.590Z,99845.77
2019-01-23T07:39:04.812Z,99843.73
2019-01-23T07:44:14.179Z,99840.64
2019-01-23T07:49:23.180Z,99839.98
2019-01-23T07:54:32.431Z,99838.59
2019-01-23T07:59:42.374Z,99842.41
2019-01-23T08:04:51.510Z,99840.89
2019-01-23T08:10:00.245Z,99834.05
2019-01-23T08:15:19.143Z,99825.35
2019-01-23T08:20:32.650Z,99831.13
2019-01-23T08:25:43.221Z,99828.86
2019-01-23T08:30:52.496Z,99822.16
2019-01-23T08:36:05.555Z,99820.73
2019-01-23T08:41:13.686Z,99815.82
2019-01-23T08:46:23.232Z,99812.55
2019-01-23T08:51:32.548Z,99804.02
2019-01-23T08:56:49.511Z,99796.05
2019-01-23T09:01:59.944Z,99805.80
2019-01-23T09:07:08.780Z,99811.20
2019-01-23T09:12:16.807Z,99808.38
2019-01-23T09:17:25.255Z,99803.00
2019-01-23T09:22:34.579Z,99809.06
2019-01-23T09:27:42.911Z,99817.69
2019-01-23T09:33:10.279Z,99825.77
2019-01-23T09:38:25.932Z,99819.32
2019-01-23T09:43:43.235Z,99817.50
2019-01-23T09:49:11.027Z,99811.04
2019-01-23T09:54:18.324Z,99813.56
2019-01-23T09:59:30.807Z,99816.46
2019-01-23T10:04:38.517Z,99804.06
2019-01-23T10:09:47.386Z,99811.88
2019-01-23T10:14:56.518Z,99804.35
2019-01-23T10:20:04.378Z,99806.03
2019-01-23T10:25:13.677Z,99800.58
2019-01-23T10:30:22.046Z,99802.11
2019-01-23T10:35:32.569Z,99804.20
2019-01-23T10:40:41.783Z,99801.43
2019-01-23T10:45:51.719Z,99800.92
2019-01-23T10:50:59.571Z,99795.90
2019-01-23T10:56:07.381Z,99798.03
2019-01-23T11:01:14.479Z,99803.48
2019-01-23T11:06:21.711Z,99798.72
2019-01-23T11:11:30.338Z,99804.94
2019-01-23T11:16:37.340Z,99809.86
2019-01-23T11:21:43.351Z,99806.61
2019-01-23T11:26:49.346Z,99802.14
2019-01-23T11:31:55.104Z,99801.73
2019-01-23T11:37:00.844Z,99800.15
2019-01-23T11:42:06.778Z,99804.70
2019-01-23T11:47:15.655Z,99814.16
2019-01-23T11:52:23.881Z,99819.34
2019-01-23T11:57:29.750Z,99813.66
2019-01-23T12:02:37.071Z,99811.70
2019-01-23T12:07:44.769Z,99817.98
2019-01-23T12:12:52.594Z,99817.47
2019-01-23T12:17:58.529Z,99812.88
2019-01-23T12:23:05.073Z,99816.56
2019-01-23T12:28:11.748Z,99829.52
2019-01-23T12:33:17.645Z,99832.01
2019-01-23T12:38:24.465Z,99825.20
2019-01-23T12:43:30.418Z,99828.69
2019-01-23T12:48:36.579Z,99830.83
2019-01-23T12:53:42.342Z,99829.89
2019-01-23T12:58:48.049Z,99836.09
2019-01-23T13:03:54.264Z,99845.65
2019-01-23T13:09:00.977Z,99838.01
2019-01-23T13:14:08.730Z,99839.34
2019-01-23T13:19:14.836Z,99833.70
2019-01-23T13:24:20.919Z,99836.34
2019-01-23T13:29:28.388Z,99835.70
2019-01-23T13:34:34.635Z,99841.44
2019-01-23T13:39:41.248Z,99846.61
2019-01-23T13:44:47.161Z,99837.37
2019-01-23T13:49:53.826Z,99840.11
2019-01-23T13:55:00.286Z,99843.39
2019-01-23T14:00:10.454Z,99847.61
2019-01-23T14:05:16.598Z,99859.05
2019-01-23T14:10:24.233Z,99860.28
2019-01-23T14:15:35.690Z,99857.44
2019-01-23T14:20:42.606Z,99866.14
2019-01-23T14:25:49.068Z,99875.01
2019-01-23T14:30:55.343Z,99873.52
2019-01-23T14:36:02.490Z,99871.42
2019-01-23T14:41:08.229Z,99884.52
2019-01-23T14:46:16.388Z,99886.69
2019-01-23T14:51:22.652Z,99893.79
2019-01-23T14:56:28.701Z,99897.63
2019-01-23T15:01:35.077Z,99902.56
2019-01-23T15:06:43.472Z,99913.77
2019-01-23T15:11:49.454Z,99911.70
2019-01-23T15:16:56.033Z,99921.05
2019-01-23T15:22:04.605Z,99916.34
2019-01-23T15:27:10.622Z,99922.17
2019-01-23T15:32:17.440Z,99923.27
2019-01-23T15:37:23.979Z,99925.86
2019-01-23T15:42:29.884Z,99933.27
2019-01-23T15:47:37.926Z,99935.41
2019-01-23T15:52:43.651Z,99942.07
2019-01-23T15:57:49.321Z,99949.39
2019-01-23T16:02:55.587Z,99960.19
2019-01-23T16:08:02.987Z,99953.16
2019-01-23T16:13:10.196Z,99961.43
2019-01-23T16:18:16.183Z,99956.48
2019-01-23T16:23:24.820Z,99953.45
2019-01-23T16:28:31.302Z,99967.55
2019-01-23T16:33:38.485Z,99975.16
2019-01-23T16:38:45.905Z,99982.14
2019-01-23T16:43:52.338Z,99986.16
2019-01-23T16:49:00.214Z,99992.69
2019-01-23T16:54:07.589Z,99995.60
2019-01-23T16:59:14.173Z,99992.27
2019-01-23T17:04:21.282Z,99991.32
2019-01-23T17:09:27.405Z,99995.09
2019-01-23T17:14:33.472Z,100008.06
2019-01-23T17:19:40.207Z,100008.19
2019-01-23T17:24:47.870Z,100012.78
2019-01-23T17:29:56.731Z,100008.00
2019-01-23T17:35:03.568Z,100016.77
2019-01-23T17:40:14.606Z,100016.75
2019-01-23T17:45:29.821Z,100018.59
2019-01-23T17:50:37.377Z,100025.66
2019-01-23T17:55:43.424Z,100022.91
2019-01-23T18:00:51.012Z,100032.45
2019-01-23T18:05:58.789Z,100022.34
2019-01-23T18:11:04.871Z,100033.47
2019-01-23T18:16:10.670Z,100024.42
2019-01-23T18:21:16.263Z,100032.39
2019-01-23T18:32:08.403Z,100038.88
2019-01-23T18:37:45.122Z,100049.47
2019-01-23T18:55:21.274Z,100054.36
2019-01-23T19:00:29.072Z,100075.71
2019-01-23T19:05:36.759Z,100074.14
2019-01-23T19:10:43.306Z,100089.06
2019-01-23T19:15:49.968Z,100085.52
2019-01-23T19:20:57.456Z,100099.80
2019-01-23T19:26:04.766Z,100102.94
2019-01-23T19:31:13.031Z,100114.04
2019-01-23T19:36:19.914Z,100116.33
2019-01-23T19:41:26.004Z,100114.47
2019-01-23T19:46:31.794Z,100127.08
2019-01-23T19:51:38.182Z,100122.45
2019-01-23T19:56:43.955Z,100128.20
2019-01-23T20:01:51.359Z,100144.52
2019-01-23T20:06:57.136Z,100140.47
2019-01-23T20:12:03.560Z,100154.63
2019-01-23T20:17:10.299Z,100144.45
2019-01-23T20:22:16.914Z,100151.42
2019-01-23T20:27:22.857Z,100157.09
2019-01-23T20:32:28.821Z,100165.78
2019-01-23T20:37:35.057Z,100174.77
2019-01-23T20:42:41.590Z,100164.75
2019-01-23T20:47:47.826Z,100167.20
2019-01-23T20:52:54.889Z,100174.22
2019-01-23T20:58:00.921Z,100172.50
2019-01-23T21:03:06.832Z,100167.38
2019-01-23T21:08:12.780Z,100169.20
2019-01-23T21:13:20.156Z,100172.92
2019-01-23T21:18:25.924Z,100179.92
2019-01-23T21:23:31.982Z,100180.60
2019-01-23T21:28:38.168Z,100189.97
2019-01-23T21:33:43.824Z,100188.42
2019-01-23T21:38:50.790Z,100181.05
2019-01-23T21:43:56.772Z,100184.08
2019-01-23T21:49:02.754Z,100191.69
2019-01-23T21:54:08.875Z,100194.47
2019-01-23T21:59:14.826Z,100199.20
2019-01-23T22:04:22.727Z,100201.83
2019-01-23T22:09:28.475Z,100205.19
2019-01-23T22:14:35.937Z,100209.19
2019-01-23T22:19:41.783Z,100207.98
2019-01-23T22:24:47.890Z,100207.03
2019-01-23T22:29:54.530Z,100215.02
2019-01-23T22:35:00.462Z,100211.42
2019-01-23T22:40:09.460Z,100216.28
2019-01-23T22:45:17.575Z,100224.14
2019-01-23T22:50:25.753Z,100227.37
2019-01-23T22:55:31.528Z,100223.52
2019-01-23T23:00:43.171Z,100228.39
2019-01-23T23:05:49.154Z,100227.64
2019-01-23T23:10:55.201Z,100240.32
2019-01-23T23:16:01.878Z,100240.04
2019-01-23T23:21:09.528Z,100232.59
2019-01-23T23:26:15.756Z,100235.39
2019-01-23T23:31:23.667Z,100240.07
2019-01-23T23:36:30.967Z,100243.73
2019-01-23T23:41:36.874Z,100245.54
2019-01-23T23:46:44.186Z,100253.52
2019-01-23T23:51:50.059Z,100251.70
2019-01-23T23:56:56.295Z,100249.66
